Latest Weather Observations for Mount Baw Baw

IDV60801

Issued at 8:05 pm EST Thursday 24 July 2014 (issued every 30 minutes, with the page automatically refreshed every 10 minutes)

About weather observations | Map of weather stations | Latest weather observations for VIC | Other Formats
Station Details ID: 085291 Name: MOUNT BAW BAW Lat: -37.84 Lon: 146.27 Height: 1561.0 m
Data from the previous 72 hours. | See also: Recent months at Mount Baw Baw
Date/Time
EST
Temp
°C
App
Temp
°C
Dew
Point
Rel
Hum
%
Delta-T
°C
Wind Press
QNH
hPa
Press
MSL
hPa
Rain
since 9 am
mm
Dir
 
Spd
km/h
Gust
km/h
Spd
kts
Gust
kts
24/08:00pm 1.8 -3.4 0.2 89 0.7 NE 17 32 - 17 - - 0.0
24/07:30pm 1.9 -3.6 0.4 90 0.6 NE 19 32 - 17 - - 0.0
24/07:00pm 1.7 -3.4 0.5 92 0.5 NE 17 28 - 15 - - 0.0
24/06:30pm 1.3 -3.4 1.2 99 0.0 NE 15 26 - 14 - - 0.0
24/06:00pm 1.1 -3.6 1.0 99 0.0 NE 15 28 - 15 - - 0.0
24/05:30pm 1.2 -3.8 1.1 99 0.0 NE 17 32 - 17 - - 0.0
24/05:00pm 1.2 -3.8 1.1 99 0.0 NNE 17 28 - 15 - - 0.0
24/04:30pm 1.2 -4.2 1.1 99 0.0 NE 19 33 - 18 - - 0.0
24/04:00pm 1.3 -3.7 1.2 99 0.0 NE 17 32 - 17 - - 0.0
24/03:30pm 1.4 -4.0 1.3 99 0.0 NE 19 35 - 19 - - 0.0
24/03:00pm 1.2 -4.4 1.1 99 0.0 NE 20 33 - 18 - - 0.0
24/02:30pm 1.1 -4.5 1.0 99 0.0 NE 20 30 - 16 - - 0.0
24/02:00pm 1.0 -4.5 0.9 99 0.0 NE 19 28 - 15 - - 0.0
24/01:30pm 1.1 -4.3 1.0 99 0.0 NE 19 32 - 17 - - 0.0
24/01:00pm 1.1 -3.6 1.0 99 0.0 NE 15 24 - 13 - - 0.0
24/12:30pm 0.8 -3.6 0.2 96 0.2 NE 13 20 - 11 - - 0.0
24/12:00pm 1.7 -2.8 -0.1 88 0.7 NE 13 19 - 10 - - 0.0
24/11:30am 1.9 -2.6 -0.5 84 1.0 NE 13 22 - 12 - - 0.0
24/11:00am 1.9 -3.4 -0.5 84 1.0 NE 17 26 - 14 - - 0.0
24/10:30am 2.0 -2.9 -0.7 82 1.1 NE 15 24 - 13 - - 0.0
24/10:00am 1.7 -3.3 -1.4 80 1.2 NE 15 28 - 15 - - 0.0
24/09:30am 1.7 -3.2 -0.7 84 1.0 NE 15 26 - 14 - - 0.0
24/09:00am 1.7 -2.9 -0.7 84 1.0 NE 13 24 - 13 - - 0.0
24/08:30am 1.6 -3.4 -1.0 83 1.0 NE 15 26 - 14 - - 0.0
24/08:00am 1.3 -4.0 -0.9 85 0.9 NE 17 28 - 15 - - 0.0
24/07:30am 1.2 -4.6 -1.5 82 1.1 NE 19 28 - 15 - - 0.0
24/07:00am 1.0 -4.4 -1.6 83 1.1 NNE 17 32 - 17 - - 0.0
24/06:30am 0.9 -4.2 -2.1 80 1.2 NNE 15 28 - 15 - - 0.0
24/06:00am 1.3 -3.9 -3.0 73 1.7 NNE 15 26 - 14 - - 0.0
24/05:30am 1.6 -3.7 -3.5 69 2.0 NNE 15 24 - 13 - - 0.0
24/05:00am 1.7 -3.3 -4.4 64 2.3 NNE 13 24 - 13 - - 0.0
24/04:30am 2.2 -3.4 -5.9 55 3.0 NNE 15 32 - 17 - - 0.0
24/04:00am 2.5 -3.4 -9.4 41 4.0 NNE 15 26 - 14 - - 0.0
24/03:30am 2.5 -3.7 -9.4 41 4.0 NNE 17 24 - 13 - - 0.0
24/03:00am 2.6 -3.3 -10.6 37 4.3 NNE 15 26 - 14 - - 0.0
24/02:30am 2.1 -4.3 -11.4 36 4.3 NE 17 22 - 12 - - 0.0
24/02:00am 2.0 -4.1 -12.9 32 4.5 NNE 15 28 - 15 - - 0.0
24/01:30am 1.9 -4.2 -13.4 31 4.6 NE 15 26 - 14 - - 0.0
24/01:00am 1.9 -4.1 -11.2 37 4.1 NNE 15 24 - 13 - - 0.0
24/12:30am 2.4 -3.6 -11.8 34 4.5 NE 15 24 - 13 - - 0.0
24/12:00am 2.6 -3.1 -12.8 31 4.7 NNE 13 22 - 12 - - 0.0
 
Date/Time
EST
Temp
°C
App
Temp
°C
Dew
Point
Rel
Hum
%
Delta-T
°C
Wind Press
QNH
hPa
Press
MSL
hPa
Rain
since 9 am
mm
Dir
 
Spd
km/h
Gust
km/h
Spd
kts
Gust
kts
23/11:30pm 2.5 -3.3 -13.7 29 4.9 NNE 13 22 - 12 - - 0.0
23/11:00pm 2.6 -3.1 -12.8 31 4.7 NNE 13 20 - 11 - - 0.0
23/10:30pm 2.7 -2.8 -10.2 38 4.3 NNE 13 20 - 11 - - 0.0
23/10:00pm 2.7 -2.8 -9.2 41 4.0 NNE 13 22 - 12 - - 0.0
23/09:30pm 2.9 -2.6 -9.3 40 4.2 NNE 13 22 - 12 - - 0.0
23/09:00pm 3.0 -2.0 -8.3 43 4.0 NNE 11 22 - 12 - - 0.0
23/08:30pm 2.9 -2.4 -7.0 48 3.6 NNE 13 19 - 10 - - 0.0
23/08:00pm 2.8 -2.0 -6.3 51 3.4 NNE 11 17 - 9 - - 0.0
23/07:30pm 2.8 -1.9 -4.9 57 3.0 NNE 11 17 - 9 - - 0.0
23/07:00pm 3.1 -1.6 -4.8 56 2.9 NNE 11 19 - 10 - - 0.0
23/06:30pm 3.1 -1.4 -3.5 62 2.5 NNE 11 17 - 9 - - 0.0
23/06:00pm 3.0 -1.5 -3.6 62 2.5 NNE 11 15 - 8 - - 0.0
23/05:30pm 3.2 -1.4 -4.5 57 2.8 NNE 11 17 - 9 - - 0.0
23/05:00pm 3.2 -1.7 -7.0 47 3.7 NNE 11 17 - 9 - - 0.0
23/04:30pm 3.6 -1.1 -9.4 38 4.5 NNE 9 13 - 7 - - 0.0
23/04:00pm 3.8 -0.5 -9.5 37 4.6 NNE 7 11 - 6 - - 0.0
23/03:30pm 4.4 0.1 -11.6 30 5.3 NE 6 13 - 7 - - 0.0
23/03:00pm 4.9 0.6 -10.8 31 5.3 NNE 6 9 - 5 - - 0.0
23/02:30pm 4.9 1.2 -8.2 38 4.5 NE 4 9 - 5 - - 0.0
23/02:00pm 5.6 1.2 -12.8 25 6.0 N 6 9 - 5 - - 0.0
23/01:30pm 6.2 1.5 -14.5 21 6.6 N 7 13 - 7 - - 0.0
23/01:00pm 6.5 2.6 -10.7 28 5.7 NNE 4 9 - 5 - - 0.0
23/12:30pm 7.5 3.1 -12.3 23 6.4 N 6 11 - 6 - - 0.0
23/12:00pm 7.4 3.0 -12.9 22 6.4 N 6 11 - 6 - - 0.0
23/11:30am 7.0 2.4 -12.7 23 6.2 NNE 7 13 - 7 - - 0.0
23/11:00am 6.9 2.3 -12.8 23 6.2 NNE 7 13 - 7 - - 0.0
23/10:30am 6.6 2.6 -12.0 25 6.0 NNE 4 11 - 6 - - 0.0
23/10:00am 5.0 0.6 -13.4 25 5.9 N 6 9 - 5 - - 0.0
23/09:30am 4.0 0.8 -11.6 31 5.1 CALM 0 4 - 2 - - 0.0
23/09:00am 3.3 0.0 -13.4 28 5.1 CALM 0 0 - 0 - - 0.0
23/08:30am 3.0 -1.3 -18.3 19 5.7 SW 4 6 - 3 - - 0.0
23/08:00am 3.0 -1.8 -22.7 13 6.2 SW 6 7 - 4 - - 0.0
23/07:30am 2.9 -2.1 -23.7 12 6.2 WSW 7 9 - 5 - - 0.0
23/07:00am 2.3 -2.8 -27.3 9 6.3 SW 7 9 - 5 - - 0.0
23/06:30am 2.2 -2.9 -28.6 8 6.3 SW 7 9 - 5 - - 0.0
23/06:00am 2.1 -3.0 -28.7 8 6.3 SW 7 9 - 5 - - 0.0
23/05:30am 1.7 -3.8 -29.0 8 6.1 SW 9 11 - 6 - - 0.0
23/05:00am 1.8 -3.6 -22.8 14 5.7 SW 9 11 - 6 - - 0.0
23/04:30am 2.8 -2.4 -29.6 7 6.6 SW 7 9 - 5 - - 0.0
23/04:00am 2.7 -2.5 -29.6 7 6.6 WSW 7 9 - 5 - - 0.0
23/03:30am 2.5 -2.7 -29.8 7 6.5 W 7 9 - 5 - - 0.0
23/03:00am 2.4 -2.8 -29.9 7 6.5 W 7 9 - 5 - - 0.0
23/02:30am 2.7 -2.5 -31.3 6 6.6 WSW 7 9 - 5 - - 0.0
23/02:00am 3.0 -2.1 -28.0 8 6.6 WSW 7 9 - 5 - - 0.0
23/01:30am 3.1 -1.8 -27.9 8 6.6 WNW 6 7 - 4 - - 0.0
23/01:00am 3.2 -1.8 -29.3 7 6.7 WSW 6 9 - 5 - - 0.0
23/12:30am 3.1 -1.7 -23.5 12 6.3 SSW 6 7 - 4 - - 0.0
23/12:00am 2.0 -2.1 -25.3 11 6.0 SSW 2 6 - 3 - - 0.0
 
Date/Time
EST
Temp
°C
App
Temp
°C
Dew
Point
Rel
Hum
%
Delta-T
°C
Wind Press
QNH
hPa
Press
MSL
hPa
Rain
since 9 am
mm
Dir
 
Spd
km/h
Gust
km/h
Spd
kts
Gust
kts
22/11:30pm 2.2 -3.0 -30.0 7 6.4 SSW 7 7 - 4 - - 0.0
22/11:00pm 2.3 -2.7 -24.1 12 6.0 S 7 9 - 5 - - 0.0
22/10:30pm 2.7 -2.4 -24.8 11 6.2 S 7 9 - 5 - - 0.0
22/10:00pm 2.8 -2.3 -25.7 10 6.4 S 7 9 - 5 - - 0.0
22/09:30pm 2.7 -2.3 -22.9 13 6.1 S 7 9 - 5 - - 0.0
22/09:00pm 2.7 -2.5 -17.4 21 5.5 S 9 11 - 6 - - 0.0
22/08:30pm 2.4 -2.4 -10.4 38 4.2 S 9 11 - 6 - - 0.0
22/08:00pm 2.4 -2.8 -17.7 21 5.4 S 9 15 - 8 - - 0.0
22/07:30pm 2.4 -2.3 -9.8 40 4.1 S 9 13 - 7 - - 0.0
22/07:00pm 2.0 -3.1 -9.8 41 3.9 S 11 13 - 7 - - 0.0
22/06:30pm 1.0 -4.1 -9.3 46 3.4 SSW 11 13 - 7 - - 0.0
22/06:00pm 1.2 -3.9 -9.7 44 3.5 SSW 11 13 - 7 - - 0.0
22/05:30pm 0.8 -4.3 -8.9 48 3.2 SSW 11 15 - 8 - - 0.0
22/05:00pm 1.7 -3.0 -9.5 43 3.7 SW 9 13 - 7 - - 0.0
22/04:30pm 2.4 -2.7 -8.9 43 3.8 SW 11 15 - 8 - - 0.0
22/04:00pm 3.0 -1.6 -8.3 43 4.0 SW 9 13 - 7 - - 0.0
22/03:30pm 3.7 -1.0 -8.9 39 4.4 SW 9 13 - 7 - - 0.0
22/03:00pm 4.0 -0.9 -12.0 30 5.2 SW 9 13 - 7 - - 0.0
22/02:30pm 4.0 -0.8 -10.8 33 5.0 SSW 9 13 - 7 - - 0.0
22/02:00pm 4.0 -0.9 -11.6 31 5.1 SW 9 15 - 8 - - 0.0
22/01:30pm 4.2 -1.1 -12.2 29 5.3 SW 11 17 - 9 - - 0.0
22/01:00pm 4.5 -0.8 -12.0 29 5.4 SW 11 15 - 8 - - 0.0
22/12:30pm 3.9 -1.6 -10.1 35 4.8 SW 13 17 - 9 - - 0.0
22/12:00pm 4.3 -0.9 -11.3 31 5.2 SW 11 15 - 8 - - 0.0
22/11:30am 3.9 -1.6 -10.1 35 4.8 SW 13 17 - 9 - - 0.0
22/11:00am 3.5 -1.7 -10.9 34 4.8 SW 11 17 - 9 - - 0.0
22/10:30am 2.8 -2.1 -11.8 33 4.6 SW 9 17 - 9 - - 0.0
22/10:00am 1.8 -3.2 -13.5 31 4.5 SSW 9 13 - 7 - - 0.0
22/09:30am 1.0 -4.3 -12.4 36 4.0 SSW 11 13 - 7 - - 0.0
22/09:00am 0.4 -4.9 -12.9 36 3.9 SW 11 13 - 7 - - 0.0
22/08:30am 0.6 -4.8 -13.1 35 4.0 SW 11 15 - 8 - - 0.0
22/08:00am 0.3 -5.0 -13.0 36 3.8 SW 11 13 - 7 - - 0.0
22/07:30am -0.1 -5.4 -13.0 37 3.7 SW 11 13 - 7 - - 0.0
22/07:00am 0.4 -4.6 -13.2 35 3.9 SSW 9 11 - 6 - - 0.0
22/06:30am 0.7 -3.9 -14.1 32 4.2 S 7 9 - 5 - - 0.0
22/06:00am 1.6 -3.5 -15.3 27 4.8 S 9 11 - 6 - - 0.0
22/05:30am 1.3 -4.2 -15.6 27 4.7 S 11 13 - 7 - - 0.0
22/05:00am 1.6 -3.9 -15.3 27 4.8 S 11 15 - 8 - - 0.0
22/04:30am 1.7 -3.4 -15.3 27 4.8 S 9 13 - 7 - - 0.0
22/04:00am 1.6 -3.5 -14.9 28 4.7 S 9 15 - 8 - - 0.0
22/03:30am 1.7 -3.4 -15.7 26 4.9 S 9 15 - 8 - - 0.0
22/03:00am 1.8 -3.7 -15.6 26 4.9 S 11 15 - 8 - - 0.0
22/02:30am 1.5 -4.0 -15.4 27 4.7 S 11 17 - 9 - - 0.0
22/02:00am 1.3 -4.5 -14.7 29 4.5 SSW 13 17 - 9 - - 0.0
22/01:30am 1.6 -4.2 -14.9 28 4.7 SSW 13 20 - 11 - - 0.0
22/01:00am 1.2 -5.0 -14.4 30 4.4 SSW 15 20 - 11 - - 0.0
22/12:30am 0.2 -5.9 -12.4 38 3.7 SSW 15 22 - 12 - - 0.0
22/12:00am 0.6 -5.6 -14.2 32 4.2 SSW 15 17 - 9 - - 0.0
 
Date/Time
EST
Temp
°C
App
Temp
°C
Dew
Point
Rel
Hum
%
Delta-T
°C
Wind Press
QNH
hPa
Press
MSL
hPa
Rain
since 9 am
mm
Dir
 
Spd
km/h
Gust
km/h
Spd
kts
Gust
kts
21/11:30pm 0.2 -5.5 -13.1 36 3.8 SSW 13 17 - 9 - - 0.0
21/11:00pm 0.3 -5.4 -12.3 38 3.7 SSW 13 15 - 8 - - 0.0
21/10:30pm 0.0 -5.3 -11.6 41 3.5 SSW 11 13 - 7 - - 0.0
21/10:00pm -0.1 -5.3 -11.1 43 3.3 SSW 11 13 - 7 - - 0.0
21/09:30pm 1.6 -3.0 -14.1 30 4.6 S 7 11 - 6 - - 0.0
21/09:00pm 1.0 -3.6 -13.4 33 4.2 SSE 7 9 - 5 - - 0.0
21/08:30pm 0.5 -4.4 -12.1 38 3.8 S 9 11 - 6 - - 0.0

Other Formats:

Comma delimited format used in spreadsheet applications
http://www.bom.gov.au/fwo/IDV60801/IDV60801.95901.axf

JavaScript Object Notation format (JSON) in row-major order
http://www.bom.gov.au/fwo/IDV60801/IDV60801.95901.json